»·PEaware :: DAL1492 KSLC-KLAS

DAL1492 :: KSLC-KLAS

FLIGHT INFORMATION

Flight Status: Arrived
Operator:
Delta Air Lines
More flights by this operator :: More flights under this callsign
Pilot: Mike C. (16705)
Aircraft: BOEING 737-800
(B738)
More flights by this aircraft type
Origin: KSLC Salt Lake City Intl
United States
Destination: KLAS McCarran Intl
United States
More flights between these airports :: More routes between these airports
Route: +EDETH5 MLF MPIRE SITEE2
File this flight plan on PilotEdge
Remarks: PBN / A1B1C1D1S1S2 DOF / 180424 REG / N838NN EET / KZLA0031 OPR / DAL PER / C RMK / TCAS SIMBRIEF
Altitude:
(Current/Filed)
34,000ft
Speed:
(Current/Filed)
464kts
Departed: 24-Apr-18 11:04 AM
Arrived: 24-Apr-18 12:06 PM
Distance/Time
Traveled:
319nm/1:02
Distance/Time
To Go:
Arrived

Flight Plot

Page will automatically refresh every two minutes.

Flight plan parsing failed; only flown route is shown


Map Options




Map Legend


Flown Route
Filed Route
Departure Airport
Arrival Airport
Navaid (VOR, NDB)
Fix

Horizontal Profiles

Position Reports

Time Latitude Longitude Heading Altitude Ground
Speed
24-Apr-18 10:02 40.789269 -111.981606 163 4234ft 0kts
24-Apr-18 10:03 40.789269 -111.981606 163 4234ft 0kts
24-Apr-18 10:04 40.789269 -111.981606 163 4234ft 0kts
24-Apr-18 10:05 40.789269 -111.981606 163 4234ft 0kts
24-Apr-18 10:06 40.789269 -111.981606 163 4234ft 0kts
24-Apr-18 10:07 40.789269 -111.981606 163 4234ft 0kts
24-Apr-18 10:08 40.789269 -111.981606 163 4235ft 0kts
24-Apr-18 10:09 40.789269 -111.981606 163 4235ft 0kts
24-Apr-18 10:10 40.789269 -111.981606 163 4235ft 0kts
24-Apr-18 10:11 40.789269 -111.981606 163 4235ft 0kts
24-Apr-18 10:12 40.789269 -111.981606 163 4235ft 0kts
24-Apr-18 10:13 40.789269 -111.981606 163 4235ft 0kts
24-Apr-18 10:14 40.789269 -111.981606 163 4235ft 0kts
24-Apr-18 10:15 40.789269 -111.981606 163 4235ft 0kts
24-Apr-18 10:16 40.789269 -111.981606 163 4235ft 0kts
24-Apr-18 10:17 40.789269 -111.981606 163 4235ft 0kts
24-Apr-18 10:18 40.789269 -111.981606 163 4235ft 0kts
24-Apr-18 10:19 40.789269 -111.981606 163 4235ft 0kts
24-Apr-18 10:20 40.789269 -111.981606 163 4235ft 0kts
24-Apr-18 10:21 40.789269 -111.981606 163 4235ft 0kts
24-Apr-18 10:22 40.789269 -111.981606 163 4235ft 0kts
24-Apr-18 10:23 40.789269 -111.981606 163 4235ft 0kts
24-Apr-18 10:24 40.789269 -111.981606 163 4235ft 0kts
24-Apr-18 10:25 40.789269 -111.981606 163 4235ft 0kts
24-Apr-18 10:26 40.789269 -111.981606 163 4235ft 0kts
24-Apr-18 10:27 40.789269 -111.981606 163 4235ft 0kts
24-Apr-18 10:28 40.789269 -111.981606 163 4235ft 0kts
24-Apr-18 10:29 40.789269 -111.981606 163 4235ft 0kts
24-Apr-18 10:30 40.789269 -111.981606 163 4235ft 0kts
24-Apr-18 10:31 40.789269 -111.981606 163 4235ft 0kts
24-Apr-18 10:32 40.789269 -111.981606 163 4235ft 0kts
24-Apr-18 10:33 40.789269 -111.981606 163 4235ft 0kts
24-Apr-18 10:34 40.789269 -111.981606 163 4235ft 0kts
24-Apr-18 10:35 40.789269 -111.981606 163 4235ft 0kts
24-Apr-18 10:36 40.789269 -111.981606 163 4235ft 0kts
24-Apr-18 10:37 40.789269 -111.981606 163 4235ft 0kts
24-Apr-18 10:38 40.789269 -111.981606 163 4235ft 0kts
24-Apr-18 10:39 40.789269 -111.981606 163 4235ft 0kts
24-Apr-18 10:40 40.789269 -111.981606 163 4235ft 0kts
24-Apr-18 10:41 40.789269 -111.981606 163 4235ft 0kts
24-Apr-18 10:42 40.789535 -111.981733 150 4235ft 2kts
24-Apr-18 10:43 40.789885 -111.982637 85 4235ft 2kts
24-Apr-18 10:44 40.789851 -111.982876 73 4235ft 0kts
24-Apr-18 10:45 40.789851 -111.982876 73 4235ft 0kts
24-Apr-18 10:46 40.789851 -111.982876 73 4235ft 0kts
24-Apr-18 10:47 40.789865 -111.982809 73 4235ft 2kts
24-Apr-18 10:48 40.791772 -111.981774 73 4235ft 11kts
24-Apr-18 10:49 40.791924 -111.977489 147 4235ft 11kts
24-Apr-18 10:50 40.787921 -111.976895 173 4235ft 17kts
24-Apr-18 10:51 40.783029 -111.976366 173 4235ft 16kts
24-Apr-18 10:52 40.779040 -111.975469 170 4235ft 13kts
24-Apr-18 10:53 40.775698 -111.975044 175 4235ft 13kts
24-Apr-18 10:54 40.774597 -111.974842 148 4235ft 0kts
24-Apr-18 10:55 40.774596 -111.974841 148 4235ft 0kts
24-Apr-18 10:56 40.774594 -111.974840 148 4235ft 0kts
24-Apr-18 10:57 40.774593 -111.974839 148 4235ft 0kts
24-Apr-18 10:58 40.774592 -111.974838 148 4235ft 0kts
24-Apr-18 10:59 40.774591 -111.974837 148 4235ft 0kts
24-Apr-18 11:00 40.774590 -111.974836 148 4235ft 0kts
24-Apr-18 11:01 40.774588 -111.974835 148 4235ft 0kts
24-Apr-18 11:02 40.774654 -111.973627 66 4235ft 12kts
24-Apr-18 11:03 40.777298 -111.973455 355 4235ft 63kts
24-Apr-18 11:04 40.819108 -111.978422 331 5785ft 182kts
24-Apr-18 11:05 40.830627 -112.052721 268 7601ft 258kts
24-Apr-18 11:06 40.822808 -112.150175 256 10238ft 273kts
24-Apr-18 11:07 40.793308 -112.239191 220 10523ft 283kts
24-Apr-18 11:08 40.729112 -112.284232 193 11401ft 343kts
24-Apr-18 11:09 40.653339 -112.297467 188 12599ft 351kts
24-Apr-18 11:10 40.554996 -112.313488 191 14599ft 361kts
24-Apr-18 11:11 40.454210 -112.334740 194 16596ft 371kts
24-Apr-18 11:12 40.351939 -112.357368 201 18869ft 371kts
24-Apr-18 11:13 40.256878 -112.414916 215 20841ft 390kts
24-Apr-18 11:14 40.159318 -112.483887 215 22938ft 404kts
24-Apr-18 11:15 40.058679 -112.554600 215 24737ft 417kts
24-Apr-18 11:16 39.955075 -112.627268 215 26336ft 428kts
24-Apr-18 11:17 39.848784 -112.701885 215 27699ft 438kts
24-Apr-18 11:18 39.740367 -112.777333 214 28879ft 447kts
24-Apr-18 11:19 39.619498 -112.828401 194 30119ft 468kts
24-Apr-18 11:20 39.490272 -112.847670 193 31457ft 467kts
24-Apr-18 11:21 39.424798 -112.857288 193 32095ft 464kts
24-Apr-18 11:22 39.296608 -112.876238 193 33222ft 461kts
24-Apr-18 11:23 39.169557 -112.895053 193 34150ft 460kts
24-Apr-18 11:24 39.041940 -112.913872 193 34357ft 462kts
24-Apr-18 11:25 38.914365 -112.932612 193 34351ft 464kts
24-Apr-18 11:26 38.784707 -112.951588 192 34346ft 469kts
24-Apr-18 11:27 38.655336 -112.970480 192 34343ft 468kts
24-Apr-18 11:28 38.525499 -112.989358 192 34340ft 468kts
24-Apr-18 11:29 38.396228 -113.008721 196 34339ft 465kts
24-Apr-18 11:30 38.277535 -113.063797 211 34339ft 451kts
24-Apr-18 11:31 38.164216 -113.133454 211 34331ft 451kts
24-Apr-18 11:32 38.051121 -113.202584 211 34321ft 451kts
24-Apr-18 11:33 37.937668 -113.272036 210 34315ft 452kts
24-Apr-18 11:34 37.824430 -113.340971 210 34313ft 452kts
24-Apr-18 11:35 37.711123 -113.409680 210 34308ft 452kts
24-Apr-18 11:36 37.597426 -113.478216 210 34288ft 451kts
24-Apr-18 11:37 37.484080 -113.546291 210 34263ft 452kts
24-Apr-18 11:38 37.370557 -113.614179 210 34229ft 452kts
24-Apr-18 11:39 37.258268 -113.681113 210 32921ft 435kts
24-Apr-18 11:40 37.151028 -113.745159 209 30712ft 419kts
24-Apr-18 11:41 37.047672 -113.806594 209 28594ft 404kts
24-Apr-18 11:42 36.947448 -113.865936 209 26528ft 391kts
24-Apr-18 11:43 36.850522 -113.923230 208 24512ft 380kts
24-Apr-18 11:44 36.755834 -113.979041 208 22529ft 371kts
24-Apr-18 11:45 36.663740 -114.033033 208 20593ft 362kts
24-Apr-18 11:46 36.577046 -114.091649 226 18659ft 348kts
24-Apr-18 11:47 36.522139 -114.189133 239 16682ft 341kts
24-Apr-18 11:48 36.471718 -114.288056 238 14745ft 337kts
24-Apr-18 11:49 36.421606 -114.385532 238 12659ft 333kts
24-Apr-18 11:50 36.374533 -114.477023 238 11729ft 295kts
24-Apr-18 11:51 36.321304 -114.549350 202 10718ft 289kts
24-Apr-18 11:52 36.248805 -114.583362 201 9612ft 268kts
24-Apr-18 11:53 36.196091 -114.638909 241 8497ft 250kts
24-Apr-18 11:54 36.163794 -114.712150 241 7992ft 236kts
24-Apr-18 11:55 36.131720 -114.784870 241 7973ft 241kts
24-Apr-18 11:56 36.099798 -114.857097 241 7958ft 242kts
24-Apr-18 11:57 36.067418 -114.930855 241 7330ft 244kts
24-Apr-18 11:58 36.035674 -115.003408 240 6342ft 236kts
24-Apr-18 11:59 35.991680 -115.056069 204 5339ft 209kts
24-Apr-18 12:00 35.945348 -115.091165 259 4379ft 192kts
24-Apr-18 12:01 35.969406 -115.145712 306 4053ft 187kts
24-Apr-18 12:02 35.997864 -115.198099 326 3516ft 179kts
24-Apr-18 12:03 36.043992 -115.189374 34 2908ft 172kts
24-Apr-18 12:04 36.081027 -115.167180 21 2191ft 123kts
24-Apr-18 12:05 36.088839 -115.162018 103 2189ft 0kts
24-Apr-18 12:06 36.088747 -115.161730 113 2189ft 6kts
24-Apr-18 12:07 36.087476 -115.158493 131 2189ft 12kts
24-Apr-18 12:08 36.085256 -115.157019 154 2189ft 11kts
24-Apr-18 12:09 36.081650 -115.154969 156 2189ft 15kts
24-Apr-18 12:10 36.078757 -115.151573 90 2189ft 16kts
24-Apr-18 12:11 36.078422 -115.145911 94 2189ft 15kts
24-Apr-18 12:12 36.078923 -115.141607 2 2189ft 11kts
24-Apr-18 12:13 36.081677 -115.140558 71 2189ft 5kts

Navigation Log

Ident Type
Flight plan parsing failed, navigation log unavailable